createdAt,value
2023-02-19T00:00:04.970Z,50.19
2023-02-19T00:01:04.944Z,50.04
2023-02-19T00:02:04.931Z,50.06
2023-02-19T00:03:04.944Z,50.12
2023-02-19T00:04:04.946Z,50.13
2023-02-19T00:05:04.945Z,50.19
2023-02-19T00:06:04.931Z,50.13
2023-02-19T00:07:04.994Z,50.19
2023-02-19T00:08:04.948Z,50.1
2023-02-19T00:09:04.932Z,50.02
2023-02-19T00:10:04.932Z,50.11
2023-02-19T00:11:04.947Z,50.07
2023-02-19T00:12:04.948Z,50.06
2023-02-19T00:13:04.933Z,50.04
2023-02-19T00:14:04.971Z,50.02
2023-02-19T00:15:04.948Z,50.09
2023-02-19T00:16:04.948Z,50.06
2023-02-19T00:17:04.935Z,49.97
2023-02-19T00:18:12.894Z,49.97
2023-02-19T00:19:04.949Z,49.92
2023-02-19T00:20:04.949Z,50.15
2023-02-19T00:21:04.935Z,50.02
2023-02-19T00:22:04.949Z,50.05
2023-02-19T00:23:04.949Z,49.92
2023-02-19T00:24:04.949Z,49.95
2023-02-19T00:25:04.935Z,49.96
2023-02-19T00:26:04.950Z,49.91
2023-02-19T00:27:04.952Z,49.96
2023-02-19T00:28:04.951Z,49.95
2023-02-19T00:29:04.936Z,49.9
2023-02-19T00:30:04.951Z,49.88
2023-02-19T00:31:04.953Z,49.91
2023-02-19T00:32:04.937Z,49.91
2023-02-19T00:33:04.938Z,49.85
2023-02-19T00:34:04.952Z,49.94
2023-02-19T00:35:04.954Z,49.95
2023-02-19T00:36:04.938Z,49.94
2023-02-19T00:37:04.938Z,49.94
2023-02-19T00:38:04.953Z,49.99
2023-02-19T00:39:04.953Z,50.03
2023-02-19T00:40:04.939Z,50.17
2023-02-19T00:41:04.954Z,50.21
2023-02-19T00:42:04.954Z,50.28
2023-02-19T00:43:04.954Z,50.4
2023-02-19T00:44:04.955Z,50.31
2023-02-19T00:45:04.954Z,50.46
2023-02-19T00:46:04.956Z,50.38
2023-02-19T00:47:04.954Z,50.23
2023-02-19T00:48:04.941Z,50.2
2023-02-19T00:49:04.955Z,50.21
2023-02-19T00:50:04.957Z,50.21
2023-02-19T00:51:04.941Z,50.14
2023-02-19T00:52:04.942Z,50.15
2023-02-19T00:53:04.957Z,50.13
2023-02-19T00:54:04.958Z,50.26
2023-02-19T00:55:04.942Z,50.28
2023-02-19T00:56:04.942Z,50.32
2023-02-19T00:57:04.958Z,50.32
2023-02-19T00:58:04.957Z,50.43
2023-02-19T00:59:04.943Z,50.34
2023-02-19T01:00:04.957Z,50.31
2023-02-19T01:01:04.958Z,50.17
2023-02-19T01:02:04.958Z,50.13
2023-02-19T01:03:04.944Z,50.15
2023-02-19T01:04:04.958Z,50.07
2023-02-19T01:05:04.959Z,50.28
2023-02-19T01:06:04.960Z,50.17
2023-02-19T01:07:04.946Z,50.07
2023-02-19T01:08:04.959Z,50.11
2023-02-19T01:09:04.960Z,50.1
2023-02-19T01:10:04.960Z,49.93
2023-02-19T01:11:04.946Z,49.93
2023-02-19T01:12:04.961Z,49.71
2023-02-19T01:13:04.962Z,49.89
2023-02-19T01:14:04.946Z,49.7
2023-02-19T01:15:04.947Z,49.76
2023-02-19T01:16:04.962Z,49.99
2023-02-19T01:17:04.963Z,49.85
2023-02-19T01:18:18.661Z,49.8
2023-02-19T01:19:04.948Z,49.82
2023-02-19T01:20:04.962Z,49.62
2023-02-19T01:21:04.962Z,49.99
2023-02-19T01:22:04.949Z,49.82
2023-02-19T01:23:04.962Z,49.79
2023-02-19T01:24:04.963Z,49.74
2023-02-19T01:25:04.964Z,49.81
2023-02-19T01:26:04.950Z,49.75
2023-02-19T01:27:21.440Z,49.77
2023-02-19T01:28:04.965Z,50.01
2023-02-19T01:29:04.964Z,49.69
2023-02-19T01:30:04.950Z,49.74
2023-02-19T01:31:04.964Z,49.61
2023-02-19T01:32:04.966Z,49.7
2023-02-19T01:33:04.965Z,49.8
2023-02-19T01:34:04.951Z,49.84
2023-02-19T01:35:04.966Z,49.87
2023-02-19T01:36:04.967Z,49.83
2023-02-19T01:37:04.953Z,49.77
2023-02-19T01:38:04.952Z,49.83
2023-02-19T01:39:04.967Z,49.73
2023-02-19T01:40:04.968Z,49.95
2023-02-19T01:41:04.952Z,49.82
2023-02-19T01:42:04.967Z,49.74
2023-02-19T01:43:04.968Z,49.56
2023-02-19T01:44:04.967Z,49.51
2023-02-19T01:45:04.953Z,49.58
2023-02-19T01:46:04.968Z,49.43
2023-02-19T01:47:04.968Z,49.62
2023-02-19T01:48:04.968Z,49.63
2023-02-19T01:49:04.954Z,49.58
2023-02-19T01:50:04.968Z,49.68
2023-02-19T01:51:04.970Z,49.62
2023-02-19T01:52:04.969Z,49.68
2023-02-19T01:53:04.955Z,49.65
2023-02-19T01:54:04.969Z,49.8
2023-02-19T01:55:04.971Z,49.53
2023-02-19T01:56:04.956Z,49.64
2023-02-19T01:57:04.956Z,49.65
2023-02-19T01:58:04.970Z,49.67
2023-02-19T01:59:04.971Z,49.79
2023-02-19T02:00:04.958Z,49.57
2023-02-19T02:01:04.995Z,49.54
2023-02-19T02:02:04.971Z,49.69
2023-02-19T02:03:04.971Z,49.51
2023-02-19T02:04:04.958Z,49.45
2023-02-19T02:05:04.972Z,49.43
2023-02-19T02:06:04.973Z,49.43
2023-02-19T02:07:04.972Z,49.4
2023-02-19T02:08:04.959Z,49.49
2023-02-19T02:09:04.973Z,49.67
2023-02-19T02:10:04.975Z,49.46
2023-02-19T02:11:04.974Z,49.68
2023-02-19T02:12:04.959Z,49.68
2023-02-19T02:13:04.974Z,49.81
2023-02-19T02:14:04.976Z,49.81
2023-02-19T02:15:04.960Z,49.86
2023-02-19T02:16:04.960Z,49.9
2023-02-19T02:17:04.974Z,49.92
2023-02-19T02:18:24.665Z,49.98
2023-02-19T02:19:04.961Z,49.92
2023-02-19T02:20:04.961Z,49.96
2023-02-19T02:21:04.976Z,49.98
2023-02-19T02:22:04.978Z,50.04
2023-02-19T02:23:04.962Z,49.93
2023-02-19T02:24:04.962Z,49.93
2023-02-19T02:25:04.977Z,50.02
2023-02-19T02:26:04.978Z,49.99
2023-02-19T02:27:04.963Z,49.94
2023-02-19T02:28:04.977Z,49.95
2023-02-19T02:29:04.977Z,49.97
2023-02-19T02:30:04.978Z,49.92
2023-02-19T02:31:04.965Z,49.89
2023-02-19T02:32:04.978Z,49.77
2023-02-19T02:33:04.979Z,49.98
2023-02-19T02:34:04.979Z,49.91
2023-02-19T02:35:04.965Z,49.88
2023-02-19T02:36:04.979Z,49.98
2023-02-19T02:37:04.980Z,49.89
2023-02-19T02:38:04.965Z,50
2023-02-19T02:39:04.965Z,49.93
2023-02-19T02:40:04.981Z,49.97
2023-02-19T02:41:04.982Z,49.94
2023-02-19T02:42:04.966Z,50.05
2023-02-19T02:43:04.966Z,50.04
2023-02-19T02:44:04.982Z,50.13
2023-02-19T02:45:04.990Z,50.17
2023-02-19T02:46:04.967Z,50.09
2023-02-19T02:47:04.981Z,50.12
2023-02-19T02:48:04.981Z,49.97
2023-02-19T02:49:04.982Z,50.22
2023-02-19T02:50:04.968Z,50.1
2023-02-19T02:51:04.982Z,50.09
2023-02-19T02:52:04.983Z,50.11
2023-02-19T02:53:04.984Z,50.06
2023-02-19T02:54:04.969Z,49.99
2023-02-19T02:55:04.983Z,50.07
2023-02-19T02:56:04.985Z,49.99
2023-02-19T02:57:04.983Z,49.89
2023-02-19T02:58:04.970Z,49.93
2023-02-19T02:59:04.984Z,49.98
2023-02-19T03:00:04.986Z,50.04
2023-02-19T03:01:04.970Z,50.02
2023-02-19T03:02:04.972Z,50.01
2023-02-19T03:03:04.986Z,50
2023-02-19T03:04:04.986Z,49.92
2023-02-19T03:05:04.971Z,50.08
2023-02-19T03:06:21.465Z,50.13
2023-02-19T03:07:04.987Z,50.08
2023-02-19T03:08:04.986Z,50.12
2023-02-19T03:09:04.972Z,50.15
2023-02-19T03:10:04.986Z,50.15
2023-02-19T03:11:04.986Z,50.29
2023-02-19T03:12:04.987Z,50.08
2023-02-19T03:13:04.973Z,50.21
2023-02-19T03:14:04.987Z,50.17
2023-02-19T03:15:04.988Z,50.03
2023-02-19T03:16:04.989Z,50.07
2023-02-19T03:17:04.974Z,50.07
2023-02-19T03:18:30.666Z,49.98
2023-02-19T03:19:05.670Z,50.12
2023-02-19T03:20:04.989Z,50.2
2023-02-19T03:21:04.976Z,50.28
2023-02-19T03:22:04.990Z,50.28
2023-02-19T03:23:04.990Z,50.42
2023-02-19T03:24:04.975Z,50.25
2023-02-19T03:25:04.976Z,50.34
2023-02-19T03:26:04.990Z,50.44
2023-02-19T03:27:04.992Z,50.31
2023-02-19T03:28:04.976Z,50.34
2023-02-19T03:29:04.991Z,50.37
2023-02-19T03:30:04.992Z,50.37
2023-02-19T03:31:04.992Z,50.45
2023-02-19T03:32:04.977Z,50.41
2023-02-19T03:33:04.991Z,50.39
2023-02-19T03:34:05.019Z,50.54
2023-02-19T03:35:04.992Z,50.45
2023-02-19T03:36:04.978Z,50.46
2023-02-19T03:37:04.992Z,50.26
2023-02-19T03:38:04.994Z,50.6
2023-02-19T03:39:04.993Z,50.4
2023-02-19T03:40:04.980Z,50.41
2023-02-19T03:41:05.042Z,50.31
2023-02-19T03:42:04.995Z,50.49
2023-02-19T03:43:04.980Z,50.42
2023-02-19T03:44:04.980Z,50.35
2023-02-19T03:45:04.995Z,50.29
2023-02-19T03:46:04.996Z,50.29
2023-02-19T03:47:04.981Z,50.39
2023-02-19T03:48:05.021Z,50.41
2023-02-19T03:49:04.996Z,50.56
2023-02-19T03:50:04.996Z,50.32
2023-02-19T03:51:04.981Z,50.39
2023-02-19T03:52:04.996Z,50.32
2023-02-19T03:53:04.997Z,50.27
2023-02-19T03:54:04.996Z,50.3
2023-02-19T03:55:04.982Z,50.35
2023-02-19T03:56:04.996Z,50.33
2023-02-19T03:57:04.999Z,50.48
2023-02-19T03:58:04.997Z,50.49
2023-02-19T03:59:04.983Z,50.47
2023-02-19T04:00:04.998Z,50.44
2023-02-19T04:01:04.998Z,50.54
2023-02-19T04:02:04.984Z,50.58
2023-02-19T04:03:04.984Z,50.58
2023-02-19T04:04:04.998Z,50.52
2023-02-19T04:05:04.999Z,50.72
2023-02-19T04:06:04.985Z,50.49
2023-02-19T04:07:04.985Z,50.43
2023-02-19T04:08:05.000Z,50.52
2023-02-19T04:09:04.999Z,50.33
2023-02-19T04:10:04.985Z,50.38
2023-02-19T04:11:05.001Z,50.38
2023-02-19T04:12:05.001Z,50.34
2023-02-19T04:13:05.000Z,50.44
2023-02-19T04:14:04.986Z,50.42
2023-02-19T04:15:05.001Z,50.43
2023-02-19T04:16:05.003Z,50.37
2023-02-19T04:17:05.001Z,50.48
2023-02-19T04:18:20.185Z,50.41
2023-02-19T04:19:11.666Z,50.39
2023-02-19T04:20:05.003Z,50.33
2023-02-19T04:21:05.003Z,50.45
2023-02-19T04:22:04.989Z,50.36
2023-02-19T04:23:05.002Z,50.46
2023-02-19T04:24:05.004Z,50.55
2023-02-19T04:25:04.989Z,50.34
2023-02-19T04:26:04.989Z,50.41
2023-02-19T04:27:05.004Z,50.38
2023-02-19T04:28:05.005Z,50.55
2023-02-19T04:29:04.990Z,50.51
2023-02-19T04:30:04.990Z,50.58
2023-02-19T04:31:05.005Z,50.37
2023-02-19T04:32:05.005Z,50.75
2023-02-19T04:33:04.990Z,50.76
2023-02-19T04:34:05.005Z,50.86
2023-02-19T04:35:05.006Z,50.95
2023-02-19T04:36:05.005Z,50.91
2023-02-19T04:37:04.992Z,50.99
2023-02-19T04:38:05.007Z,51.03
2023-02-19T04:39:05.008Z,51.13
2023-02-19T04:40:05.006Z,51.12
2023-02-19T04:41:04.993Z,51.19
2023-02-19T04:42:05.006Z,51.16
2023-02-19T04:43:05.008Z,51.34
2023-02-19T04:45:04.993Z,51.24
2023-02-19T04:46:05.007Z,51.25
2023-02-19T04:48:04.994Z,51.19
2023-02-19T04:49:04.994Z,51.22
2023-02-19T04:50:05.009Z,51.23
2023-02-19T04:51:05.009Z,51.43
2023-02-19T04:52:04.994Z,51.28
2023-02-19T04:53:05.009Z,51.25
2023-02-19T04:54:05.009Z,51.36
2023-02-19T04:55:05.010Z,51.27
2023-02-19T04:56:04.995Z,51.33
2023-02-19T04:57:05.009Z,51.3
2023-02-19T04:58:05.011Z,51.36
2023-02-19T04:59:05.010Z,51.4
2023-02-19T05:00:04.996Z,51.39
2023-02-19T05:01:05.010Z,51.29
2023-02-19T05:02:05.011Z,51.6
2023-02-19T05:03:05.012Z,51.35
2023-02-19T05:04:04.997Z,51.32
2023-02-19T05:05:05.011Z,51.44
2023-02-19T05:06:05.012Z,51.22
2023-02-19T05:07:04.997Z,51.21
2023-02-19T05:08:04.998Z,51.24
2023-02-19T05:09:05.013Z,51.18
2023-02-19T05:10:05.013Z,51.3
2023-02-19T05:11:04.998Z,51.17
2023-02-19T05:12:04.998Z,51.09
2023-02-19T05:13:05.014Z,51.28
2023-02-19T05:14:05.014Z,50.98
2023-02-19T05:15:04.999Z,51.12
2023-02-19T05:16:05.013Z,51.16
2023-02-19T05:17:05.014Z,51.21
2023-02-19T05:18:19.443Z,51.2
2023-02-19T05:19:05.000Z,51.22
2023-02-19T05:20:05.014Z,51.2
2023-02-19T05:21:05.016Z,51.26
2023-02-19T05:22:05.014Z,51.16
2023-02-19T05:23:05.001Z,51.1
2023-02-19T05:24:05.015Z,51.1
2023-02-19T05:25:05.016Z,51.07
2023-02-19T05:26:05.015Z,51.03
2023-02-19T05:27:05.001Z,51.04
2023-02-19T05:28:21.495Z,51
2023-02-19T05:29:12.976Z,51.05
2023-02-19T05:30:05.002Z,51.2
2023-02-19T05:31:05.003Z,51.11
2023-02-19T05:32:05.017Z,51.18
2023-02-19T05:33:05.019Z,51.2
2023-02-19T05:34:05.003Z,51
2023-02-19T05:35:05.004Z,50.9
2023-02-19T05:36:05.018Z,51.03
2023-02-19T05:37:05.018Z,50.96
2023-02-19T05:38:05.004Z,50.93
2023-02-19T05:39:05.018Z,50.9
2023-02-19T05:40:05.018Z,50.89
2023-02-19T05:41:05.019Z,51.08
2023-02-19T05:42:05.004Z,50.98
2023-02-19T05:43:05.019Z,50.85
2023-02-19T05:44:05.020Z,51.05
2023-02-19T05:45:05.019Z,51.03
2023-02-19T05:46:05.005Z,50.99
2023-02-19T05:47:05.020Z,50.94
2023-02-19T05:48:05.022Z,51
2023-02-19T05:49:05.031Z,51
2023-02-19T05:50:05.006Z,50.99
2023-02-19T05:51:05.020Z,50.83
2023-02-19T05:52:05.021Z,50.89
2023-02-19T05:53:05.007Z,50.92
2023-02-19T05:54:05.007Z,50.84
2023-02-19T05:55:05.021Z,50.91
2023-02-19T05:56:05.022Z,50.81
2023-02-19T05:57:05.007Z,50.85
2023-02-19T05:58:05.022Z,50.84
2023-02-19T05:59:05.022Z,50.89
2023-02-19T06:00:05.022Z,50.83
2023-02-19T06:01:05.008Z,50.87
2023-02-19T06:02:05.022Z,50.75
2023-02-19T06:03:05.090Z,50.93
2023-02-19T06:04:05.023Z,50.93
2023-02-19T06:05:05.009Z,51.01
2023-02-19T06:06:05.023Z,51.06
2023-02-19T06:07:05.025Z,50.89
2023-02-19T06:08:05.024Z,51.02
2023-02-19T06:09:05.010Z,51.04
2023-02-19T06:10:05.048Z,51.02
2023-02-19T06:11:05.026Z,51.05
2023-02-19T06:12:05.011Z,50.98
2023-02-19T06:13:05.011Z,50.86
2023-02-19T06:14:05.025Z,50.87
2023-02-19T06:15:05.027Z,50.81
2023-02-19T06:16:05.011Z,50.91
2023-02-19T06:17:05.049Z,50.84
2023-02-19T06:18:05.027Z,50.66
2023-02-19T06:19:05.027Z,50.81
2023-02-19T06:20:05.012Z,50.74
2023-02-19T06:21:05.026Z,50.68
2023-02-19T06:22:05.026Z,50.49
2023-02-19T06:23:05.027Z,50.59
2023-02-19T06:24:05.014Z,50.64
2023-02-19T06:25:05.027Z,50.68
2023-02-19T06:26:05.028Z,50.76
2023-02-19T06:27:05.028Z,50.52
2023-02-19T06:28:05.014Z,50.5
2023-02-19T06:29:05.028Z,50.51
2023-02-19T06:30:05.030Z,50.61
2023-02-19T06:31:05.028Z,50.6
2023-02-19T06:32:05.014Z,50.62
2023-02-19T06:33:05.030Z,50.54
2023-02-19T06:34:05.030Z,50.6
2023-02-19T06:35:05.015Z,50.73
2023-02-19T06:36:05.015Z,50.55
2023-02-19T06:37:05.030Z,50.67
2023-02-19T06:38:05.031Z,50.56
2023-02-19T06:39:05.016Z,50.58
2023-02-19T06:40:05.016Z,50.54
2023-02-19T06:41:05.031Z,50.51
2023-02-19T06:42:05.031Z,50.47
2023-02-19T06:43:05.017Z,50.45
2023-02-19T06:44:05.032Z,50.47
2023-02-19T06:45:05.031Z,50.43
2023-02-19T06:46:05.031Z,50.32
2023-02-19T06:47:05.017Z,50.27
2023-02-19T06:48:05.032Z,50.39
2023-02-19T06:49:12.990Z,50.31
2023-02-19T06:50:05.033Z,50.35
2023-02-19T06:51:05.018Z,50.37
2023-02-19T06:52:05.032Z,50.37
2023-02-19T06:53:05.034Z,50.35
2023-02-19T06:54:05.033Z,50.62
2023-02-19T06:55:05.020Z,50.34
2023-02-19T06:56:05.082Z,50.28
2023-02-19T06:57:05.035Z,50.4
2023-02-19T06:58:05.020Z,50.26
2023-02-19T06:59:05.020Z,50.27
2023-02-19T07:00:05.035Z,50.23
2023-02-19T07:01:05.035Z,50.45
2023-02-19T07:02:05.021Z,50.2
2023-02-19T07:03:05.059Z,50.13
2023-02-19T07:04:05.036Z,50.04
2023-02-19T07:05:05.035Z,50.03
2023-02-19T07:06:05.021Z,50.04
2023-02-19T07:07:05.035Z,50.02
2023-02-19T07:08:05.036Z,49.92
2023-02-19T07:09:05.036Z,50.02
2023-02-19T07:10:05.022Z,49.94
2023-02-19T07:11:05.036Z,50.11
2023-02-19T07:12:05.037Z,49.84
2023-02-19T07:13:05.038Z,49.96
2023-02-19T07:14:05.023Z,50
2023-02-19T07:15:05.038Z,49.99
2023-02-19T07:16:05.038Z,49.98
2023-02-19T07:17:05.023Z,50.01
2023-02-19T07:18:05.024Z,50.05
2023-02-19T07:19:05.039Z,50.07
2023-02-19T07:20:05.040Z,50.09
2023-02-19T07:21:05.024Z,50.09
2023-02-19T07:22:05.024Z,50.07
2023-02-19T07:23:05.040Z,50.06
2023-02-19T07:24:05.040Z,50.03
2023-02-19T07:25:05.025Z,50
2023-02-19T07:26:05.039Z,49.97
2023-02-19T07:27:05.040Z,49.91
2023-02-19T07:28:05.041Z,49.99
2023-02-19T07:29:05.026Z,49.9
2023-02-19T07:30:05.040Z,49.84
2023-02-19T07:31:05.041Z,50.17
2023-02-19T07:32:05.040Z,50.07
2023-02-19T07:33:05.027Z,50.09
2023-02-19T07:34:05.041Z,50.11
2023-02-19T07:35:05.043Z,50.01
2023-02-19T07:36:05.052Z,49.92
2023-02-19T07:37:05.027Z,49.95
2023-02-19T07:38:05.043Z,50.1
2023-02-19T07:39:05.043Z,49.82
2023-02-19T07:40:05.028Z,49.92
2023-02-19T07:41:05.029Z,49.95
2023-02-19T07:42:05.043Z,49.9
2023-02-19T07:43:05.045Z,49.91
2023-02-19T07:44:05.029Z,49.91
2023-02-19T07:45:05.043Z,49.89
2023-02-19T07:46:05.044Z,49.78
2023-02-19T07:47:05.043Z,50.01
2023-02-19T07:48:05.030Z,50.04
2023-02-19T07:49:18.719Z,50.23
2023-02-19T07:50:05.044Z,50.26
2023-02-19T07:51:05.044Z,50.1
2023-02-19T07:52:05.045Z,50.16
2023-02-19T07:53:05.045Z,50.24
2023-02-19T07:54:05.047Z,50.2
2023-02-19T07:55:05.046Z,50.21
2023-02-19T07:56:05.031Z,50.11
2023-02-19T07:57:05.046Z,49.98
2023-02-19T07:58:05.048Z,50.03
2023-02-19T07:59:05.032Z,50.05
2023-02-19T08:00:05.032Z,50.05
2023-02-19T08:01:05.047Z,50.02
2023-02-19T08:02:05.047Z,50.05
2023-02-19T08:03:05.034Z,50.06
2023-02-19T08:04:05.034Z,49.96
2023-02-19T08:05:05.048Z,49.78
2023-02-19T08:06:05.049Z,49.91
2023-02-19T08:07:05.035Z,49.79
2023-02-19T08:08:05.048Z,49.73
2023-02-19T08:09:05.049Z,49.64
2023-02-19T08:10:05.049Z,49.67
2023-02-19T08:11:05.035Z,49.54
2023-02-19T08:12:05.048Z,49.47
2023-02-19T08:13:05.050Z,49.4
2023-02-19T08:14:05.050Z,49.28
2023-02-19T08:15:05.035Z,49.34
2023-02-19T08:16:05.049Z,49.46
2023-02-19T08:17:05.050Z,49.23
2023-02-19T08:18:05.051Z,49.41
2023-02-19T08:19:05.036Z,49.43
2023-02-19T08:20:05.050Z,49.44
2023-02-19T08:21:05.051Z,49.46
2023-02-19T08:22:05.037Z,49.36
2023-02-19T08:23:05.037Z,49.07
2023-02-19T08:24:05.052Z,49.02
2023-02-19T08:25:05.053Z,49.1
2023-02-19T08:26:05.037Z,49.07
2023-02-19T08:27:05.039Z,49.06
2023-02-19T08:28:05.053Z,49
2023-02-19T08:29:05.053Z,49.11
2023-02-19T08:30:05.039Z,49.11
2023-02-19T08:31:05.052Z,49.12
2023-02-19T08:32:05.054Z,49.04
2023-02-19T08:33:05.053Z,49.24
2023-02-19T08:34:05.039Z,49.07
2023-02-19T08:35:05.053Z,48.94
2023-02-19T08:36:05.054Z,48.93
2023-02-19T08:37:05.054Z,49.02
2023-02-19T08:38:05.040Z,48.94
2023-02-19T08:39:05.054Z,48.84
2023-02-19T08:40:05.056Z,48.89
2023-02-19T08:41:05.041Z,48.68
2023-02-19T08:42:05.041Z,48.62
2023-02-19T08:43:05.056Z,48.56
2023-02-19T08:44:05.057Z,48.75
2023-02-19T08:45:05.041Z,48.66
2023-02-19T08:46:05.042Z,48.66
2023-02-19T08:47:05.057Z,48.97
2023-02-19T08:48:05.057Z,48.75
2023-02-19T08:49:24.689Z,48.77
2023-02-19T08:50:05.057Z,48.79
2023-02-19T08:51:05.057Z,48.72
2023-02-19T08:52:05.057Z,48.83
2023-02-19T08:53:05.043Z,48.71
2023-02-19T08:54:05.057Z,48.79
2023-02-19T08:55:05.057Z,48.85
2023-02-19T08:56:05.058Z,48.79
2023-02-19T08:57:05.045Z,48.81
2023-02-19T08:58:05.058Z,48.71
2023-02-19T08:59:05.059Z,48.67
2023-02-19T09:00:05.059Z,48.58
2023-02-19T09:01:05.045Z,48.4
2023-02-19T09:02:05.059Z,48.26
2023-02-19T09:03:05.061Z,48.07
2023-02-19T09:04:05.045Z,48.07
2023-02-19T09:05:05.046Z,47.99
2023-02-19T09:06:05.061Z,48.12
2023-02-19T09:07:05.061Z,48.05
2023-02-19T09:08:05.046Z,48.13
2023-02-19T09:09:05.047Z,48.09
2023-02-19T09:10:05.062Z,48.2
2023-02-19T09:11:05.062Z,48.17
2023-02-19T09:12:05.047Z,48.14
2023-02-19T09:13:05.061Z,48.13
2023-02-19T09:14:05.063Z,48.06
2023-02-19T09:15:05.062Z,48.16
2023-02-19T09:16:05.048Z,48.02
2023-02-19T09:17:05.062Z,48
2023-02-19T09:18:05.063Z,47.82
2023-02-19T09:19:05.063Z,48.08
2023-02-19T09:20:05.049Z,47.98
2023-02-19T09:21:05.063Z,48.02
2023-02-19T09:22:05.065Z,48.14
2023-02-19T09:23:05.050Z,48.23
2023-02-19T09:24:05.050Z,48.38
2023-02-19T09:25:05.065Z,48.49
2023-02-19T09:26:05.066Z,48.38
2023-02-19T09:27:05.050Z,48.42
2023-02-19T09:28:05.052Z,48.37
2023-02-19T09:29:05.066Z,48.16
2023-02-19T09:30:05.065Z,48.14
2023-02-19T09:31:05.052Z,48.15
2023-02-19T09:32:05.066Z,48.01
2023-02-19T09:33:05.067Z,47.99
2023-02-19T09:34:05.066Z,47.57
2023-02-19T09:35:05.053Z,47.52
2023-02-19T09:36:05.066Z,47.61
2023-02-19T09:37:05.068Z,47.61
2023-02-19T09:38:05.067Z,47.57
2023-02-19T09:39:05.054Z,47.47
2023-02-19T09:40:05.067Z,47.5
2023-02-19T09:41:05.069Z,47.72
2023-02-19T09:42:05.069Z,47.91
2023-02-19T09:43:05.054Z,47.92
2023-02-19T09:44:05.069Z,48.01
2023-02-19T09:45:05.069Z,48
2023-02-19T09:46:05.055Z,48.12
2023-02-19T09:47:05.055Z,48.26
2023-02-19T09:48:05.069Z,48.22
2023-02-19T09:49:30.664Z,48.27
2023-02-19T09:50:05.668Z,48.45
2023-02-19T09:51:05.056Z,48.4
2023-02-19T09:52:05.070Z,48.39
2023-02-19T09:53:05.070Z,48.49
2023-02-19T09:54:05.057Z,48.47
2023-02-19T09:55:05.072Z,48.44
2023-02-19T09:56:05.071Z,48.35
2023-02-19T09:57:05.071Z,48.51
2023-02-19T09:58:05.057Z,48.5
2023-02-19T09:59:05.073Z,48.52
2023-02-19T10:00:05.074Z,48.48
2023-02-19T10:01:05.072Z,48.39
2023-02-19T10:02:05.058Z,48.5
2023-02-19T10:03:05.073Z,48.56
2023-02-19T10:04:05.074Z,48.53
2023-02-19T10:05:05.073Z,48.23
2023-02-19T10:06:05.059Z,48.29
2023-02-19T10:07:05.074Z,48.21
2023-02-19T10:08:05.076Z,48.07
2023-02-19T10:09:05.060Z,47.91
2023-02-19T10:10:05.060Z,47.68
2023-02-19T10:11:05.075Z,47.48
2023-02-19T10:12:05.077Z,47.4
2023-02-19T10:13:05.061Z,47.33
2023-02-19T10:14:05.075Z,47.36
2023-02-19T10:15:05.076Z,47.36
2023-02-19T10:16:05.077Z,47.55
2023-02-19T10:17:05.063Z,47.68
2023-02-19T10:18:05.076Z,47.74
2023-02-19T10:19:05.077Z,47.92
2023-02-19T10:20:05.077Z,48.25
2023-02-19T10:21:05.063Z,48.29
2023-02-19T10:22:05.078Z,48.45
2023-02-19T10:23:05.079Z,48.26
2023-02-19T10:24:05.077Z,48.05
2023-02-19T10:25:05.064Z,47.94
2023-02-19T10:26:05.118Z,47.75
2023-02-19T10:27:05.079Z,47.61
2023-02-19T10:28:05.064Z,47.39
2023-02-19T10:29:05.064Z,47.39
2023-02-19T10:30:05.080Z,47.3
2023-02-19T10:31:05.080Z,47.36
2023-02-19T10:32:05.065Z,47.2
2023-02-19T10:33:05.129Z,47.17
2023-02-19T10:34:05.081Z,47.01
2023-02-19T10:35:05.080Z,47.21
2023-02-19T10:36:05.066Z,47.33
2023-02-19T10:37:05.080Z,47.51
2023-02-19T10:38:05.082Z,47.83
2023-02-19T10:39:05.081Z,48
2023-02-19T10:40:05.067Z,48.13
2023-02-19T10:41:05.082Z,48.32
2023-02-19T10:42:05.083Z,48.34
2023-02-19T10:43:05.083Z,48.48
2023-02-19T10:44:05.068Z,48.65
2023-02-19T10:45:05.082Z,49
2023-02-19T10:46:05.083Z,48.9
2023-02-19T10:47:05.069Z,49.11
2023-02-19T10:48:05.069Z,49.43
2023-02-19T10:49:20.199Z,49.67
2023-02-19T10:50:11.681Z,49.76
2023-02-19T10:51:05.070Z,49.76
2023-02-19T10:52:05.070Z,49.65
2023-02-19T10:53:05.085Z,49.68
2023-02-19T10:54:05.085Z,49.66
2023-02-19T10:55:05.071Z,49.68
2023-02-19T10:56:05.135Z,49.57
2023-02-19T10:57:05.085Z,49.72
2023-02-19T10:58:05.085Z,49.89
2023-02-19T10:59:05.072Z,49.78
2023-02-19T11:00:05.086Z,49.84
2023-02-19T11:01:05.086Z,50
2023-02-19T11:02:05.087Z,49.79
2023-02-19T11:03:05.072Z,49.93
2023-02-19T11:04:05.087Z,49.77
2023-02-19T11:05:05.088Z,49.73
2023-02-19T11:06:05.087Z,49.63
2023-02-19T11:07:05.073Z,49.44
2023-02-19T11:08:05.088Z,49.33
2023-02-19T11:09:05.090Z,49.18
2023-02-19T11:10:05.074Z,49.19
2023-02-19T11:11:05.074Z,49.31
2023-02-19T11:12:05.088Z,49.49
2023-02-19T11:13:05.091Z,49.58
2023-02-19T11:14:05.075Z,49.72
2023-02-19T11:15:05.075Z,49.93
2023-02-19T11:16:05.089Z,50.1
2023-02-19T11:17:05.115Z,50.13
2023-02-19T11:18:05.077Z,50.13
2023-02-19T11:19:05.091Z,50.12
2023-02-19T11:20:05.091Z,50.2
2023-02-19T11:21:05.091Z,50.22
2023-02-19T11:22:05.077Z,50.41
2023-02-19T11:23:05.091Z,50.64
2023-02-19T11:24:05.143Z,50.43
2023-02-19T11:25:05.091Z,50.49
2023-02-19T11:26:05.078Z,50.51
2023-02-19T11:27:05.092Z,50.44
2023-02-19T11:28:05.094Z,50.26
2023-02-19T11:29:05.093Z,49.99
2023-02-19T11:30:05.079Z,50.06
2023-02-19T11:31:05.117Z,50.09
2023-02-19T11:32:05.095Z,50.4
2023-02-19T11:33:05.079Z,50.17
2023-02-19T11:34:05.079Z,50.21
2023-02-19T11:35:05.095Z,50.18
2023-02-19T11:36:05.096Z,49.96
2023-02-19T11:37:05.080Z,50.01
2023-02-19T11:38:05.118Z,50.15
2023-02-19T11:39:05.095Z,50.25
2023-02-19T11:40:05.096Z,50.19
2023-02-19T11:41:05.082Z,50
2023-02-19T11:42:05.095Z,49.88
2023-02-19T11:43:05.095Z,49.83
2023-02-19T11:44:05.096Z,49.85
2023-02-19T11:45:05.082Z,49.79
2023-02-19T11:46:05.096Z,49.63
2023-02-19T11:47:05.097Z,49.44
2023-02-19T11:48:05.097Z,49.49
2023-02-19T11:49:19.514Z,49.59
2023-02-19T11:50:05.097Z,49.68
2023-02-19T11:51:05.099Z,49.61
2023-02-19T11:52:05.113Z,49.78
2023-02-19T11:53:05.084Z,49.82
2023-02-19T11:54:05.099Z,49.76
2023-02-19T11:55:05.100Z,49.83
2023-02-19T11:56:05.084Z,50.04
2023-02-19T11:57:05.085Z,50.27
2023-02-19T11:58:05.100Z,50.37
2023-02-19T11:59:05.164Z,50.31
2023-02-19T12:00:05.085Z,50.31
2023-02-19T12:01:05.100Z,50.21
2023-02-19T12:02:05.101Z,50.12
2023-02-19T12:03:05.101Z,49.83
2023-02-19T12:04:05.086Z,49.93
2023-02-19T12:05:05.100Z,49.82
2023-02-19T12:06:05.128Z,49.78
2023-02-19T12:07:05.101Z,49.7
2023-02-19T12:08:05.087Z,49.85
2023-02-19T12:09:21.579Z,49.99
2023-02-19T12:10:13.062Z,50
2023-02-19T12:11:05.102Z,49.98
2023-02-19T12:12:05.088Z,50.02
2023-02-19T12:13:05.102Z,50.1
2023-02-19T12:14:05.104Z,49.88
2023-02-19T12:15:05.089Z,49.71
2023-02-19T12:16:05.089Z,49.53
2023-02-19T12:17:05.104Z,49.18
2023-02-19T12:18:05.105Z,49
2023-02-19T12:19:05.090Z,48.67
2023-02-19T12:20:05.090Z,48.46
2023-02-19T12:21:05.105Z,48.21
2023-02-19T12:22:05.154Z,48.25
2023-02-19T12:23:05.090Z,48.09
2023-02-19T12:24:05.105Z,48.04
2023-02-19T12:25:05.106Z,48.01
2023-02-19T12:26:05.106Z,48.2
2023-02-19T12:27:05.092Z,48.25
2023-02-19T12:28:05.107Z,48.24
2023-02-19T12:29:05.109Z,48.52
2023-02-19T12:30:05.106Z,48.52
2023-02-19T12:31:05.093Z,48.7
2023-02-19T12:32:05.107Z,48.9
2023-02-19T12:33:05.109Z,49.23
2023-02-19T12:34:05.107Z,49.15
2023-02-19T12:35:05.093Z,49.2
2023-02-19T12:36:05.109Z,49.21
2023-02-19T12:37:05.110Z,49.21
2023-02-19T12:38:05.094Z,49.25
2023-02-19T12:39:05.094Z,49.12
2023-02-19T12:40:05.108Z,48.93
2023-02-19T12:41:05.110Z,48.96
2023-02-19T12:42:05.095Z,48.96
2023-02-19T12:43:05.109Z,48.96
2023-02-19T12:44:05.110Z,48.85
2023-02-19T12:45:05.111Z,48.98
2023-02-19T12:46:05.096Z,48.9
2023-02-19T12:47:05.110Z,48.58
2023-02-19T12:48:05.177Z,47.66
2023-02-19T12:49:05.111Z,47.32
2023-02-19T12:50:05.097Z,47.1
2023-02-19T12:51:05.111Z,46.22
2023-02-19T12:52:05.112Z,45.11
2023-02-19T12:53:05.112Z,44.12
2023-02-19T12:54:05.098Z,43.73
2023-02-19T12:55:21.614Z,44.09
2023-02-19T12:56:05.113Z,44.5
2023-02-19T12:57:05.100Z,45.01
2023-02-19T12:58:05.099Z,45.53